createdAt,value
2018-07-04T00:02:44.610Z,14.14
2018-07-04T00:05:31.915Z,14.14
2018-07-04T00:08:18.531Z,14.18
2018-07-04T00:11:05.279Z,14.13
2018-07-04T00:13:52.073Z,14.05
2018-07-04T00:16:40.523Z,13.96
2018-07-04T00:19:27.029Z,13.96
2018-07-04T00:22:07.646Z,14.00
2018-07-04T00:24:54.047Z,13.97
2018-07-04T00:27:40.447Z,14.00
2018-07-04T00:30:26.758Z,13.93
2018-07-04T00:33:13.442Z,13.93
2018-07-04T00:36:00.076Z,13.88
2018-07-04T00:38:46.559Z,13.84
2018-07-04T00:41:32.963Z,13.66
2018-07-04T00:44:19.287Z,13.59
2018-07-04T00:47:05.758Z,13.47
2018-07-04T00:49:52.041Z,13.15
2018-07-04T00:52:32.419Z,13.11
2018-07-04T00:55:18.859Z,12.99
2018-07-04T00:58:07.246Z,12.85
2018-07-04T01:00:53.589Z,12.80
2018-07-04T01:03:40.105Z,12.80
2018-07-04T01:06:26.362Z,12.79
2018-07-04T01:09:07.304Z,12.80
2018-07-04T01:11:55.309Z,12.69
2018-07-04T01:14:41.698Z,12.67
2018-07-04T01:17:28.307Z,12.58
2018-07-04T01:20:14.519Z,12.46
2018-07-04T01:23:00.885Z,12.29
2018-07-04T01:25:41.531Z,12.06
2018-07-04T01:28:33.465Z,12.10
2018-07-04T01:31:20.272Z,11.97
2018-07-04T01:34:07.486Z,12.02
2018-07-04T01:36:53.968Z,12.10
2018-07-04T01:39:40.430Z,12.14
2018-07-04T01:42:21.836Z,12.18
2018-07-04T01:45:08.383Z,12.18
2018-07-04T01:47:54.850Z,12.18
2018-07-04T01:50:41.982Z,12.19
2018-07-04T01:53:28.504Z,12.03
2018-07-04T01:56:14.762Z,11.73
2018-07-04T01:59:01.266Z,11.80
2018-07-04T02:01:47.827Z,11.83
2018-07-04T02:04:34.267Z,11.88
2018-07-04T02:07:14.668Z,11.95
2018-07-04T02:10:01.350Z,12.02
2018-07-04T02:12:47.596Z,11.92
2018-07-04T02:15:33.838Z,11.89
2018-07-04T02:18:21.031Z,11.88
2018-07-04T02:21:07.515Z,11.73
2018-07-04T02:23:54.502Z,11.45
2018-07-04T02:26:41.035Z,11.42
2018-07-04T02:29:28.739Z,11.44
2018-07-04T02:32:15.550Z,11.49
2018-07-04T02:35:02.172Z,11.49
2018-07-04T02:37:49.881Z,11.47
2018-07-04T02:40:36.234Z,11.42
2018-07-04T02:43:22.749Z,11.37
2018-07-04T02:46:09.012Z,11.32
2018-07-04T02:48:56.579Z,11.22
2018-07-04T02:51:43.453Z,11.23
2018-07-04T02:54:29.778Z,11.20
2018-07-04T02:57:16.228Z,11.18
2018-07-04T03:00:02.590Z,11.10
2018-07-04T03:02:48.974Z,11.12
2018-07-04T03:05:35.380Z,11.00
2018-07-04T03:08:21.752Z,11.10
2018-07-04T03:11:08.717Z,11.20
2018-07-04T03:13:54.969Z,11.25
2018-07-04T03:16:41.331Z,11.19
2018-07-04T03:19:27.753Z,11.17
2018-07-04T03:22:13.986Z,11.03
2018-07-04T03:25:00.474Z,10.90
2018-07-04T03:27:47.149Z,10.97
2018-07-04T03:30:34.836Z,10.98
2018-07-04T03:33:21.214Z,10.98
2018-07-04T03:36:08.910Z,11.03
2018-07-04T03:38:55.482Z,10.95
2018-07-04T03:41:42.159Z,10.94
2018-07-04T03:44:28.499Z,10.72
2018-07-04T03:47:15.177Z,10.81
2018-07-04T03:50:01.704Z,10.90
2018-07-04T03:52:48.128Z,11.03
2018-07-04T03:55:34.814Z,11.01
2018-07-04T03:58:21.369Z,11.15
2018-07-04T04:01:08.734Z,11.32
2018-07-04T04:03:55.263Z,11.41
2018-07-04T04:06:41.836Z,11.45
2018-07-04T04:09:29.111Z,11.57
2018-07-04T04:12:16.493Z,11.70
2018-07-04T04:15:02.826Z,11.80
2018-07-04T04:17:49.916Z,11.82
2018-07-04T04:20:36.201Z,11.93
2018-07-04T04:23:22.631Z,11.98
2018-07-04T04:26:09.007Z,12.02
2018-07-04T04:28:55.445Z,12.18
2018-07-04T04:31:41.926Z,12.28
2018-07-04T04:34:28.310Z,12.40
2018-07-04T04:37:14.729Z,12.53
2018-07-04T04:40:01.266Z,12.68
2018-07-04T04:42:47.725Z,12.84
2018-07-04T04:45:34.056Z,12.97
2018-07-04T04:48:20.834Z,13.02
2018-07-04T04:51:07.277Z,13.10
2018-07-04T04:53:53.793Z,13.22
2018-07-04T04:56:40.706Z,13.27
2018-07-04T04:59:27.449Z,13.35
2018-07-04T05:02:07.840Z,13.43
2018-07-04T05:04:54.462Z,13.54
2018-07-04T05:07:41.013Z,13.63
2018-07-04T05:10:27.268Z,13.86
2018-07-04T05:13:13.846Z,13.87
2018-07-04T05:15:54.199Z,13.99
2018-07-04T05:18:40.861Z,14.07
2018-07-04T05:21:27.236Z,14.21
2018-07-04T05:24:13.790Z,14.23
2018-07-04T05:27:00.278Z,14.26
2018-07-04T05:29:46.997Z,14.43
2018-07-04T05:32:33.477Z,14.47
2018-07-04T05:35:19.922Z,14.53
2018-07-04T05:38:06.479Z,14.63
2018-07-04T05:40:53.258Z,14.61
2018-07-04T05:43:33.799Z,14.56
2018-07-04T05:46:14.561Z,14.72
2018-07-04T05:49:01.009Z,14.74
2018-07-04T05:51:47.305Z,14.69
2018-07-04T05:54:27.736Z,14.77
2018-07-04T05:57:14.091Z,14.81
2018-07-04T06:00:00.440Z,14.90
2018-07-04T06:02:46.843Z,15.00
2018-07-04T06:05:33.304Z,15.02
2018-07-04T06:08:19.994Z,15.00
2018-07-04T06:11:06.540Z,15.19
2018-07-04T06:13:53.117Z,15.20
2018-07-04T06:16:39.913Z,15.21
2018-07-04T06:19:26.449Z,15.46
2018-07-04T06:22:12.827Z,15.55
2018-07-04T06:24:59.357Z,15.62
2018-07-04T06:27:46.630Z,15.61
2018-07-04T06:30:27.135Z,15.60
2018-07-04T06:33:13.746Z,15.52
2018-07-04T06:36:00.818Z,15.37
2018-07-04T06:38:28.579Z,15.43
2018-07-04T06:40:56.476Z,15.21
2018-07-04T06:43:24.541Z,15.38
2018-07-04T06:45:52.746Z,15.50
2018-07-04T06:48:20.527Z,15.59
2018-07-04T06:50:48.302Z,15.65
2018-07-04T06:53:16.058Z,15.68
2018-07-04T06:55:43.845Z,15.90
2018-07-04T06:58:11.605Z,15.77
2018-07-04T07:00:39.368Z,15.82
2018-07-04T07:03:25.870Z,15.97
2018-07-04T07:06:12.238Z,16.07
2018-07-04T07:08:58.647Z,15.97
2018-07-04T07:11:45.253Z,16.18
2018-07-04T07:14:31.759Z,16.08
2018-07-04T07:17:18.042Z,16.22
2018-07-04T07:20:04.469Z,16.27
2018-07-04T07:22:50.864Z,16.43
2018-07-04T07:25:37.271Z,16.49
2018-07-04T07:28:23.809Z,16.58
2018-07-04T07:31:10.297Z,16.55
2018-07-04T07:33:56.798Z,16.55
2018-07-04T07:36:43.736Z,16.65
2018-07-04T07:39:30.132Z,16.75
2018-07-04T07:42:16.508Z,16.75
2018-07-04T07:45:02.976Z,16.77
2018-07-04T07:47:43.431Z,16.84
2018-07-04T07:50:29.772Z,16.91
2018-07-04T07:53:16.289Z,17.06
2018-07-04T07:56:02.597Z,17.11
2018-07-04T07:58:49.216Z,17.03
2018-07-04T08:01:35.705Z,17.12
2018-07-04T08:04:22.409Z,17.37
2018-07-04T08:07:09.042Z,17.42
2018-07-04T08:09:55.600Z,17.57
2018-07-04T08:12:42.223Z,17.61
2018-07-04T08:15:28.706Z,17.75
2018-07-04T08:18:15.231Z,17.89
2018-07-04T08:21:01.534Z,17.81
2018-07-04T08:23:48.020Z,17.82
2018-07-04T08:26:34.583Z,17.98
2018-07-04T08:29:21.096Z,17.88
2018-07-04T08:32:07.722Z,18.02
2018-07-04T08:34:48.477Z,18.13
2018-07-04T08:37:35.149Z,18.20
2018-07-04T08:40:21.737Z,18.12
2018-07-04T08:43:08.293Z,18.09
2018-07-04T08:45:54.889Z,18.16
2018-07-04T08:48:41.225Z,18.33
2018-07-04T08:51:21.727Z,18.42
2018-07-04T08:54:08.342Z,18.29
2018-07-04T08:56:54.620Z,18.44
2018-07-04T08:59:41.000Z,18.60
2018-07-04T09:02:21.496Z,18.57
2018-07-04T09:05:08.012Z,18.60
2018-07-04T09:07:54.539Z,18.64
2018-07-04T09:10:41.382Z,18.96
2018-07-04T09:13:21.895Z,18.90
2018-07-04T09:16:08.173Z,19.30
2018-07-04T09:18:54.697Z,19.28
2018-07-04T09:21:41.345Z,19.28
2018-07-04T09:24:27.847Z,19.14
2018-07-04T09:27:14.380Z,19.34
2018-07-04T09:30:00.964Z,19.16
2018-07-04T09:32:47.415Z,19.49
2018-07-04T09:35:33.824Z,19.64
2018-07-04T09:38:20.381Z,19.56
2018-07-04T09:41:06.945Z,19.69
2018-07-04T09:43:53.836Z,19.68
2018-07-04T09:46:40.356Z,19.73
2018-07-04T09:49:26.755Z,19.82
2018-07-04T09:52:13.272Z,19.92
2018-07-04T09:55:00.008Z,19.87
2018-07-04T09:57:46.397Z,19.95
2018-07-04T10:00:32.898Z,20.23
2018-07-04T10:03:19.401Z,20.31
2018-07-04T10:06:06.645Z,20.45
2018-07-04T10:08:53.211Z,20.64
2018-07-04T10:11:39.973Z,20.55
2018-07-04T10:14:26.342Z,20.54
2018-07-04T10:17:12.876Z,20.81
2018-07-04T10:19:59.719Z,20.90
2018-07-04T10:22:40.301Z,21.03
2018-07-04T10:25:26.774Z,21.10
2018-07-04T10:28:13.471Z,21.17
2018-07-04T10:30:59.882Z,21.01
2018-07-04T10:33:46.245Z,21.02
2018-07-04T10:36:32.713Z,21.09
2018-07-04T10:39:19.284Z,21.28
2018-07-04T10:42:05.757Z,21.34
2018-07-04T10:44:52.380Z,21.36
2018-07-04T10:47:38.818Z,21.49
2018-07-04T10:50:25.225Z,21.67
2018-07-04T10:53:05.867Z,21.76
2018-07-04T10:55:52.288Z,21.91
2018-07-04T10:58:38.753Z,21.99
2018-07-04T11:01:25.088Z,21.96
2018-07-04T11:04:11.552Z,21.96
2018-07-04T11:06:57.996Z,22.09
2018-07-04T11:09:44.457Z,22.03
2018-07-04T11:12:30.946Z,22.28
2018-07-04T11:15:17.841Z,22.36
2018-07-04T11:17:58.229Z,22.15
2018-07-04T11:20:44.783Z,22.15
2018-07-04T11:23:31.345Z,22.09
2018-07-04T11:26:17.825Z,22.32
2018-07-04T11:28:58.290Z,22.29
2018-07-04T11:31:38.787Z,22.49
2018-07-04T11:34:25.426Z,22.78
2018-07-04T11:37:11.974Z,22.72
2018-07-04T11:39:59.194Z,22.72
2018-07-04T11:42:45.723Z,22.94
2018-07-04T11:45:32.143Z,23.11
2018-07-04T11:48:00.444Z,23.30
2018-07-04T11:50:28.230Z,23.36
2018-07-04T11:52:56.905Z,23.27
2018-07-04T11:55:25.658Z,23.25
2018-07-04T11:57:53.413Z,23.24
2018-07-04T12:00:21.201Z,23.33
2018-07-04T12:02:49.170Z,23.54
2018-07-04T12:05:35.708Z,23.70
2018-07-04T12:08:03.448Z,23.91
2018-07-04T12:10:31.211Z,23.83
2018-07-04T12:12:59.002Z,24.08
2018-07-04T12:15:26.822Z,24.47
2018-07-04T12:17:54.586Z,24.82
2018-07-04T12:20:22.463Z,24.91
2018-07-04T12:22:50.215Z,25.38
2018-07-04T12:25:18.090Z,25.98
2018-07-04T12:27:45.903Z,26.47
2018-07-04T12:30:13.656Z,28.19
2018-07-04T12:32:41.430Z,29.93
2018-07-04T12:35:09.228Z,30.54
2018-07-04T12:37:37.013Z,29.81
2018-07-04T12:40:04.796Z,30.86
2018-07-04T12:42:32.641Z,32.06
2018-07-04T12:45:00.662Z,32.21
2018-07-04T12:47:28.453Z,32.01
2018-07-04T12:49:56.398Z,32.43
2018-07-04T12:52:24.149Z,31.93
2018-07-04T12:55:12.796Z,33.24
2018-07-04T12:57:59.076Z,32.78
2018-07-04T13:00:45.640Z,33.72
2018-07-04T13:03:32.200Z,34.13
2018-07-04T13:06:18.921Z,33.34
2018-07-04T13:09:05.756Z,33.15
2018-07-04T13:11:52.845Z,32.91
2018-07-04T13:14:39.477Z,32.88
2018-07-04T13:17:26.324Z,31.69
2018-07-04T13:20:12.647Z,33.14
2018-07-04T13:22:59.041Z,33.20
2018-07-04T13:25:45.604Z,33.62
2018-07-04T13:28:32.336Z,34.35
2018-07-04T13:31:19.337Z,35.73
2018-07-04T13:34:06.211Z,34.88
2018-07-04T13:36:52.883Z,33.38
2018-07-04T13:39:39.417Z,33.97
2018-07-04T13:42:26.233Z,33.36
2018-07-04T13:45:13.585Z,32.65
2018-07-04T13:48:00.015Z,34.69
2018-07-04T13:50:46.545Z,34.38
2018-07-04T13:53:34.932Z,34.64
2018-07-04T13:56:21.516Z,34.38
2018-07-04T13:59:08.154Z,35.07
2018-07-04T14:01:55.290Z,35.44
2018-07-04T14:04:42.014Z,34.44
2018-07-04T14:07:22.510Z,36.93
2018-07-04T14:10:09.158Z,37.56
2018-07-04T14:12:55.623Z,38.48
2018-07-04T14:15:42.258Z,38.27
2018-07-04T14:18:28.747Z,39.33
2018-07-04T14:21:15.069Z,38.74
2018-07-04T14:24:01.528Z,38.06
2018-07-04T14:26:48.312Z,37.95
2018-07-04T14:29:34.837Z,38.44
2018-07-04T14:32:15.133Z,37.64
2018-07-04T14:35:01.650Z,35.83
2018-07-04T14:37:48.296Z,36.48
2018-07-04T14:40:28.762Z,36.77
2018-07-04T14:43:09.235Z,36.32
2018-07-04T14:45:50.004Z,35.32
2018-07-04T14:48:30.472Z,35.45
2018-07-04T14:51:11.189Z,35.19
2018-07-04T14:53:57.676Z,34.24
2018-07-04T14:56:44.265Z,35.44
2018-07-04T14:59:31.561Z,35.42
2018-07-04T15:02:12.071Z,35.69
2018-07-04T15:04:58.699Z,36.34
2018-07-04T15:07:44.975Z,35.79
2018-07-04T15:10:31.516Z,35.97
2018-07-04T15:13:17.930Z,36.38
2018-07-04T15:16:04.520Z,37.14
2018-07-04T15:18:50.920Z,37.01
2018-07-04T15:21:37.477Z,36.49
2018-07-04T15:24:23.804Z,35.25
2018-07-04T15:27:10.375Z,34.85
2018-07-04T15:29:50.598Z,34.63
2018-07-04T15:32:37.311Z,34.94
2018-07-04T15:35:23.687Z,34.91
2018-07-04T15:38:10.207Z,34.53
2018-07-04T15:40:56.599Z,34.24
2018-07-04T15:43:43.190Z,34.34
2018-07-04T15:46:29.570Z,34.06
2018-07-04T15:49:17.285Z,34.92
2018-07-04T15:52:03.781Z,34.80
2018-07-04T15:54:50.690Z,35.27
2018-07-04T15:57:37.031Z,35.79
2018-07-04T16:00:23.476Z,35.92
2018-07-04T16:03:10.306Z,37.17
2018-07-04T16:05:56.611Z,36.40
2018-07-04T16:08:43.068Z,37.39
2018-07-04T16:11:29.509Z,34.65
2018-07-04T16:14:15.886Z,34.89
2018-07-04T16:17:02.408Z,33.73
2018-07-04T16:19:49.004Z,34.33
2018-07-04T16:22:35.534Z,35.15
2018-07-04T16:25:22.016Z,35.35
2018-07-04T16:28:08.629Z,35.14
2018-07-04T16:30:55.138Z,34.71
2018-07-04T16:33:41.510Z,33.43
2018-07-04T16:36:27.897Z,33.32
2018-07-04T16:39:14.325Z,33.36
2018-07-04T16:42:00.712Z,32.99
2018-07-04T16:44:47.149Z,33.30
2018-07-04T16:47:33.611Z,31.49
2018-07-04T16:50:20.121Z,31.71
2018-07-04T16:53:06.507Z,31.60
2018-07-04T16:55:46.816Z,31.02
2018-07-04T16:58:33.333Z,30.44
2018-07-04T17:01:20.673Z,30.47
2018-07-04T17:04:07.137Z,30.15
2018-07-04T17:06:53.976Z,30.10
2018-07-04T17:09:40.505Z,29.40
2018-07-04T17:12:26.953Z,29.86
2018-07-04T17:15:13.412Z,28.92
2018-07-04T17:17:59.884Z,28.00
2018-07-04T17:20:46.559Z,27.33
2018-07-04T17:23:32.877Z,26.95
2018-07-04T17:26:19.349Z,26.38
2018-07-04T17:29:05.812Z,26.59
2018-07-04T17:31:52.157Z,26.02
2018-07-04T17:34:38.514Z,25.74
2018-07-04T17:37:24.983Z,25.64
2018-07-04T17:40:11.525Z,25.52
2018-07-04T17:42:58.096Z,25.43
2018-07-04T17:45:44.618Z,25.62
2018-07-04T17:48:31.359Z,25.46
2018-07-04T17:51:17.667Z,25.51
2018-07-04T17:54:04.309Z,25.48
2018-07-04T17:56:51.204Z,25.37
2018-07-04T17:59:31.593Z,25.49
2018-07-04T18:02:18.199Z,25.59
2018-07-04T18:05:04.871Z,25.46
2018-07-04T18:07:51.423Z,25.47
2018-07-04T18:10:37.874Z,25.29
2018-07-04T18:13:24.321Z,25.46
2018-07-04T18:16:10.738Z,25.55
2018-07-04T18:18:57.109Z,25.39
2018-07-04T18:21:37.534Z,25.38
2018-07-04T18:24:23.902Z,25.26
2018-07-04T18:27:10.400Z,25.23
2018-07-04T18:29:56.812Z,25.04
2018-07-04T18:32:43.443Z,24.57
2018-07-04T18:35:30.071Z,24.55
2018-07-04T18:38:16.457Z,24.35
2018-07-04T18:41:02.826Z,24.22
2018-07-04T18:43:49.554Z,24.15
2018-07-04T18:46:36.041Z,23.94
2018-07-04T18:49:22.467Z,23.77
2018-07-04T18:52:09.062Z,23.58
2018-07-04T18:54:55.433Z,23.59
2018-07-04T18:57:41.843Z,23.41
2018-07-04T19:00:28.262Z,23.40
2018-07-04T19:03:14.636Z,23.30
2018-07-04T19:06:00.925Z,22.84
2018-07-04T19:08:47.326Z,22.98
2018-07-04T19:11:27.630Z,22.80
2018-07-04T19:14:14.252Z,22.86
2018-07-04T19:17:00.814Z,22.64
2018-07-04T19:19:47.176Z,22.65
2018-07-04T19:22:33.541Z,22.58
2018-07-04T19:25:19.870Z,22.53
2018-07-04T19:28:06.117Z,22.39
2018-07-04T19:30:46.461Z,22.25
2018-07-04T19:33:27.044Z,22.27
2018-07-04T19:36:07.628Z,22.13
2018-07-04T19:38:53.958Z,21.94
2018-07-04T19:41:40.502Z,21.94
2018-07-04T19:44:26.858Z,21.84
2018-07-04T19:47:14.506Z,21.68
2018-07-04T19:50:01.093Z,21.67
2018-07-04T19:52:47.645Z,21.38
2018-07-04T19:55:34.212Z,21.36
2018-07-04T19:58:23.741Z,21.22
2018-07-04T20:01:04.246Z,21.02
2018-07-04T20:03:50.693Z,21.00
2018-07-04T20:06:37.053Z,20.99
2018-07-04T20:09:23.411Z,20.83
2018-07-04T20:12:03.867Z,20.72
2018-07-04T20:14:50.422Z,20.63
2018-07-04T20:17:36.974Z,20.60
2018-07-04T20:20:23.468Z,20.55
2018-07-04T20:23:10.936Z,20.44
2018-07-04T20:25:57.242Z,20.37
2018-07-04T20:28:43.897Z,20.22
2018-07-04T20:31:30.463Z,20.11
2018-07-04T20:34:17.145Z,20.03
2018-07-04T20:36:57.661Z,19.86
2018-07-04T20:39:44.491Z,19.96
2018-07-04T20:42:31.079Z,19.89
2018-07-04T20:45:17.550Z,19.65
2018-07-04T20:48:03.957Z,19.60
2018-07-04T20:50:50.332Z,19.48
2018-07-04T20:53:30.932Z,19.30
2018-07-04T20:56:17.690Z,19.29
2018-07-04T20:59:04.159Z,19.16
2018-07-04T21:01:50.620Z,19.14
2018-07-04T21:04:36.958Z,19.06
2018-07-04T21:07:23.510Z,18.97
2018-07-04T21:10:10.369Z,18.93
2018-07-04T21:12:57.120Z,18.84
2018-07-04T21:15:43.488Z,18.77
2018-07-04T21:18:30.044Z,18.63
2018-07-04T21:21:16.378Z,18.64
2018-07-04T21:24:03.010Z,18.65
2018-07-04T21:26:49.523Z,18.58
2018-07-04T21:29:36.243Z,18.46
2018-07-04T21:32:22.701Z,18.33
2018-07-04T21:35:09.037Z,18.35
2018-07-04T21:37:55.361Z,18.23
2018-07-04T21:40:41.830Z,18.13
2018-07-04T21:43:28.365Z,18.06
2018-07-04T21:46:15.044Z,17.89
2018-07-04T21:49:01.430Z,17.99
2018-07-04T21:51:47.794Z,17.80
2018-07-04T21:54:34.197Z,17.79
2018-07-04T21:57:20.559Z,17.74
2018-07-04T22:00:07.413Z,17.66
2018-07-04T22:02:53.877Z,17.50
2018-07-04T22:05:40.280Z,17.50
2018-07-04T22:08:26.741Z,17.45
2018-07-04T22:11:13.080Z,17.46
2018-07-04T22:13:59.611Z,17.41
2018-07-04T22:16:46.006Z,17.44
2018-07-04T22:19:32.491Z,17.40
2018-07-04T22:22:18.930Z,17.22
2018-07-04T22:25:05.322Z,17.22
2018-07-04T22:27:51.920Z,17.20
2018-07-04T22:30:38.546Z,17.17
2018-07-04T22:33:25.680Z,17.14
2018-07-04T22:36:12.112Z,17.07
2018-07-04T22:38:58.524Z,17.06
2018-07-04T22:41:45.212Z,16.94
2018-07-04T22:44:25.866Z,16.90
2018-07-04T22:47:12.422Z,16.93
2018-07-04T22:49:58.860Z,16.85
2018-07-04T22:52:45.337Z,16.75
2018-07-04T22:55:31.887Z,16.70
2018-07-04T22:58:18.308Z,16.71
2018-07-04T23:01:04.705Z,16.61
2018-07-04T23:03:45.086Z,16.60
2018-07-04T23:06:31.487Z,16.62
2018-07-04T23:09:17.825Z,16.49
2018-07-04T23:12:04.238Z,16.43
2018-07-04T23:14:50.641Z,16.39
2018-07-04T23:17:36.927Z,16.40
2018-07-04T23:20:23.386Z,16.43
2018-07-04T23:23:03.815Z,16.24
2018-07-04T23:25:50.130Z,16.30
2018-07-04T23:28:36.586Z,16.21
2018-07-04T23:31:23.015Z,16.20
2018-07-04T23:34:09.385Z,16.21
2018-07-04T23:36:55.913Z,16.21
2018-07-04T23:39:42.305Z,16.21
2018-07-04T23:42:28.827Z,16.19
2018-07-04T23:45:15.308Z,16.08
2018-07-04T23:48:01.729Z,16.17
2018-07-04T23:50:48.185Z,16.13
2018-07-04T23:53:28.717Z,16.20
2018-07-04T23:56:15.385Z,16.04
2018-07-04T23:59:01.713Z,15.92
